Southern California Logo

Palm Springs, CA Single Family Real Estate Listings

278 Total Real Estate Listings * Click on table heading to sort
Date Posted Property Type Style Address Price Living Area Lot Size Price/Sq Ft.
2018-11-28 Single Family Ranch 2180 Wayne Road Palm Springs, CA 92262 $415,000 1,405 sq. ft. 9,583 sq. ft. $295
2018-11-27 Single Family Mid Century 1008 Apache Road Palm Springs, CA 92264 $1,150,000 1,600 sq. ft. 10,890 sq. ft. $719
2018-11-27 Single Family Mid Century 2262 Yosemite Drive Palm Springs, CA 92264 $1,295,000 2,889 sq. ft. 17,424 sq. ft. $448
2018-11-27 Single Family Mid Century 1363 Deepwell Road Palm Springs, CA 92264 $979,000 2,182 sq. ft. 10,019 sq. ft. $449
2018-11-27 Single Family Mediterranean 1869 Savanna Way Palm Springs, CA 92262 $484,888 2,748 sq. ft. 6,534 sq. ft. $176
2018-11-26 Single Family Mediterranean 1209 Verdugo Road Palm Springs, CA 92262 $1,279,000 3,507 sq. ft. 15,246 sq. ft. $365
2018-11-26 Single Family Ranch 677 Mountain View Drive Palm Springs, CA 92264 $459,900 2,804 sq. ft. 10,019 sq. ft. $164
2018-11-23 Single Family Tuscan 988 Alta Ridge Palm Springs, CA 92262 $599,000 2,698 sq. ft. 9,148 sq. ft. $222
2018-11-23 Single Family Contemporary 396 Neutra Street Palm Springs, CA 92264 $1,459,000 3,504 sq. ft. 14,375 sq. ft. $416
2018-11-23 Single Family Mediterranean 339 Vereda Norte Palm Springs, CA 92262 $2,499,000 3,323 sq. ft. 19,166 sq. ft. $752
2018-11-21 Single Family Contemporary 750 Phillips Road Palm Springs, CA 92262 $1,675,000 3,119 sq. ft. 13,504 sq. ft. $537
2018-11-20 Single Family Modern 3072 Linea Terrace Palm Springs, CA 92264 $2,790,000 4,869 sq. ft. 17,424 sq. ft. $573
2018-11-20 Single Family Mediterranean 594 Stevens Road Palm Springs, CA 92262 $2,995,000 5,073 sq. ft. 43,560 sq. ft. $590
2018-11-20 Single Family Contemporary 2177 Cerritos Drive Palm Springs, CA 92262 $438,000 1,201 sq. ft. 10,454 sq. ft. $365
2018-11-19 Single Family Mediterranean 2190 Paseo De Anza Palm Springs, CA 92262 $484,000 1,717 sq. ft. 6,970 sq. ft. $282
2018-11-19 Single Family Contemporary 445 Monte Vista Drive Palm Springs, CA 92262 $3,795,000 4,535 sq. ft. 14,375 sq. ft. $837
2018-11-19 Single Family Modern 599 Soriano Way Palm Springs, CA 92262 $1,220,000 2,787 sq. ft. 7,841 sq. ft. $438
2018-11-19 Single Family Contemporary 366 Neutra Street Palm Springs, CA 92264 $1,595,000 4,109 sq. ft. 14,375 sq. ft. $388
2018-11-17 Single Family A-Frame 525 Avenida Cerca Palm Springs, CA 92262 $198,900 1,602 sq. ft. 8,276 sq. ft. $124
2018-11-16 Single Family Mediterranean 390 Patencio Road Palm Springs, CA 92262 $1,795,000 3,262 sq. ft. 11,761 sq. ft. $550
2018-11-16 Single Family 2090 Acacia Road Palm Springs, CA 92262 $519,000 2,364 sq. ft. 12,197 sq. ft. $220
2018-11-16 Single Family Mediterranean 1731 San Sebastian Court Palm Springs, CA 92264 $590,000 2,108 sq. ft. 5,663 sq. ft. $280
2018-11-16 Single Family Ranch 2550 Verona Road Palm Springs, CA 92262 $528,000 1,920 sq. ft. 13,504 sq. ft. $275
2018-11-15 Single Family Mid Century 1488 Riverside Drive Palm Springs, CA 92264 $817,000 1,952 sq. ft. 10,019 sq. ft. $419
2018-11-15 Single Family Other 3140 Escoba Drive Palm Springs, CA 92264 $545,000 2,195 sq. ft. 11,761 sq. ft. $248
2018-11-15 Single Family Spanish 955 Via Livorno Palm Springs, CA 92262 $1,350,000 3,765 sq. ft. 15,246 sq. ft. $359
2018-11-15 Single Family Bungalow 900 Paseo Caroleta Palm Springs, CA 92264 $545,000 1,232 sq. ft. 6,534 sq. ft. $442
2018-11-15 Single Family Mediterranean 3769 Claret Trails Palm Springs, CA 92262 $430,000 2,023 sq. ft. 5,663 sq. ft. $213
2018-11-14 Single Family Mid Century 447 Mariscal Road Palm Springs, CA 92262 $1,800,000 2,342 sq. ft. 20,038 sq. ft. $769
2018-11-14 Single Family Ranch 1580 Via Soledad Palm Springs, CA 92264 $599,900 1,549 sq. ft. 10,454 sq. ft. $387
2018-11-14 Single Family Contemporary 649 Carnation Street Palm Springs, CA 92262 $525,000 1,930 sq. ft. 8,712 sq. ft. $272
2018-11-13 Single Family Mid Century 1841 Navajo Circle Palm Springs, CA 92264 $929,000 2,100 sq. ft. 10,454 sq. ft. $442
2018-11-13 Single Family Bungalow 1964 Barona Road Palm Springs, CA 92264 $725,000 1,381 sq. ft. 7,841 sq. ft. $525
2018-11-12 Single Family Mediterranean 820 Avenida Caballeros Palm Springs, CA 92262 $739,000 2,033 sq. ft. 12,197 sq. ft. $364
2018-11-10 Single Family Contemporary 2087 Toledo Avenue Palm Springs, CA 92264 $1,125,000 3,449 sq. ft. 10,019 sq. ft. $326
2018-11-10 Single Family Mediterranean 1450 Sabita Way Palm Springs, CA 92262 $729,000 2,784 sq. ft. 11,326 sq. ft. $262
2018-11-10 Single Family Spanish 610 Via Monte Vista Palm Springs, CA 92262 $2,395,000 3,612 sq. ft. 23,087 sq. ft. $663
2018-11-10 Single Family Ranch 4187 Sunny Dunes Road Palm Springs, CA 92264 $485,000 1,260 sq. ft. 6,534 sq. ft. $385
2018-11-09 Single Family Modern 1130 Manzanita Avenue Palm Springs, CA 92264 $1,420,000 3,759 sq. ft. 12,632 sq. ft. $378
2018-11-09 Single Family Ranch 1489 Francis Drive Palm Springs, CA 92262 $485,000 1,475 sq. ft. 7,405 sq. ft. $329
2018-11-09 Single Family Architectural 2222 Caliente Drive Palm Springs, CA 92264 $1,095,000 3,189 sq. ft. 10,019 sq. ft. $343
2018-11-09 Single Family Ranch 485 Palm Vista Drive Palm Springs, CA 92262 $215,000 1,180 sq. ft. 7,405 sq. ft. $182
2018-11-09 Single Family Mediterranean 1488 La Reina Way Palm Springs, CA 92264 $649,000 2,068 sq. ft. 10,454 sq. ft. $314
2018-11-09 Single Family Contemporary 1183 Celadon Street Palm Springs, CA 92262 $799,000 1,984 sq. ft. 5,227 sq. ft. $403
2018-11-08 Single Family Mediterranean 866 Alta Ridge Palm Springs, CA 92262 $549,000 2,517 sq. ft. 10,454 sq. ft. $218
2018-11-08 Single Family Architectural 2323 Southridge Drive Palm Springs, CA 92264 $3,895,000 3,234 sq. ft. 21,344 sq. ft. $1,204
2018-11-08 Single Family Mid Century 2423 Alhambra Drive Palm Springs, CA 92264 $1,225,000 2,523 sq. ft. 10,454 sq. ft. $486
2018-11-08 Single Family 2720 Sierra Madre Palm Springs, CA 92264 $1,495,000 3,380 sq. ft. 11,761 sq. ft. $442
2018-11-08 Single Family Spanish 2999 Via Vaquero Road Palm Springs, CA 92262 $859,900 2,159 sq. ft. 12,632 sq. ft. $398
2018-11-08 Single Family Contemporary 2740 Sierra Madre Palm Springs, CA 92264 $1,395,000 2,940 sq. ft. 11,761 sq. ft. $474
2018-11-08 Single Family Contemporary 280 Lautner Lane Palm Springs, CA 92264 $1,349,000 3,068 sq. ft. 14,375 sq. ft. $440
2018-11-07 Single Family Mid Century 888 Janet Circle Palm Springs, CA 92262 $655,000 1,225 sq. ft. 12,197 sq. ft. $535
2018-11-07 Single Family 821 Summit Drive Palm Springs, CA 92262 $500,000 3,015 sq. ft. 12,632 sq. ft. $166
2018-11-07 Single Family Mid Century 1431 Tachevah Drive Palm Springs, CA 92262 $449,000 1,300 sq. ft. 10,019 sq. ft. $345
2018-11-06 Single Family Mediterranean 1500 Beverly Drive Palm Springs, CA 92264 $465,000 1,659 sq. ft. 11,326 sq. ft. $280
2018-11-06 Single Family 2115 Deborah Road Palm Springs, CA 92262 $439,000 1,760 sq. ft. 11,326 sq. ft. $249
2018-11-06 Single Family Spanish Colonial 244 Camino Buena Vista Palm Springs, CA 92264 $1,495,000 2,574 sq. ft. 11,761 sq. ft. $581
2018-11-06 Single Family 370 Sunview Avenue Palm Springs, CA 92262 $254,900 1,315 sq. ft. 7,405 sq. ft. $194
2018-11-05 Single Family Mediterranean 2633 Windmill Way Palm Springs, CA 92262 $385,000 2,102 sq. ft. 5,227 sq. ft. $183
2018-11-05 Single Family Mediterranean 1175 Alta Cresta Palm Springs, CA 92262 $409,900 1,835 sq. ft. 5,663 sq. ft. $223
2018-11-05 Single Family Ranch 1434 Gem Circle Palm Springs, CA 92262 $539,000 1,560 sq. ft. 8,712 sq. ft. $346
2018-11-05 Single Family Mid Century 522 Calle Marcus Palm Springs, CA 92262 $649,000 1,325 sq. ft. 6,098 sq. ft. $490
2018-11-05 Single Family Calif Bungalow 677 Calle Marcus Palm Springs, CA 92262 $619,000 1,391 sq. ft. 6,534 sq. ft. $445
2018-11-04 Single Family Modern 2052 Acacia Road Palm Springs, CA 92262 $895,000 2,350 sq. ft. 12,197 sq. ft. $381
2018-11-03 Single Family Contemporary 1006 Andreas Palms Drive Palm Springs, CA 92264 $999,000 3,740 sq. ft. 15,246 sq. ft. $267
2018-11-03 Single Family 1351 Francis Drive Palm Springs, CA 92262 $524,000 1,258 sq. ft. 7,841 sq. ft. $417
2018-11-03 Single Family Contemporary 1340 Primavera Drive Palm Springs, CA 92264 $825,000 2,182 sq. ft. 8,276 sq. ft. $378
2018-11-03 Single Family Contemporary 1496 Luna Way Palm Springs, CA 92262 $449,000 1,560 sq. ft. 9,583 sq. ft. $288
2018-11-03 Single Family Spanish Colonial 1788 Zafiro Court Palm Springs, CA 92264 $489,000 1,622 sq. ft. 2,178 sq. ft. $301
2018-11-03 Single Family Mediterranean 3223 Estaban Way Palm Springs, CA 92264 $1,700,000 3,513 sq. ft. 17,860 sq. ft. $484
2018-11-02 Single Family Contemporary 525 Camino Calidad Palm Springs, CA 92264 $3,195,000 4,176 sq. ft. 21,780 sq. ft. $765
2018-11-02 Single Family Mediterranean 1578 Enclave Way Palm Springs, CA 92262 $830,000 3,056 sq. ft. 10,454 sq. ft. $272
2018-11-02 Single Family Mid Century 640 Ocotillo Avenue Palm Springs, CA 92264 $819,500 2,127 sq. ft. 14,810 sq. ft. $385
2018-11-02 Single Family Contemporary 3167 San Martin Circle Palm Springs, CA 92264 $519,000 1,532 sq. ft. 13,068 sq. ft. $339
2018-11-02 Single Family Modern 1021 Bella Vista Palm Springs, CA 92264 $1,865,000 3,775 sq. ft. 18,731 sq. ft. $494
2018-11-01 Single Family Contemporary 1265 Tachevah Drive Palm Springs, CA 92262 $649,900 1,950 sq. ft. 5,663 sq. ft. $333
2018-11-01 Single Family Contemporary 3075 Arroyo Seco Palm Springs, CA 92264 $1,598,000 3,813 sq. ft. 13,939 sq. ft. $419
2018-10-31 Single Family Mediterranean 1380 Culver Place Palm Springs, CA 92262 $1,399,000 3,860 sq. ft. 15,246 sq. ft. $362
2018-10-31 Single Family Spanish Colonial 420 Canyon Place Palm Springs, CA 92262 $1,895,000 2,944 sq. ft. 9,583 sq. ft. $644
2018-10-31 Single Family Mid Century 2044 Jacques Drive Palm Springs, CA 92262 $509,000 1,200 sq. ft. 10,890 sq. ft. $424
2018-10-31 Single Family Spanish 667 Mel Avenue Palm Springs, CA 92262 $1,599,000 2,654 sq. ft. 16,988 sq. ft. $602
2018-10-30 Single Family Spanish Colonial 1945 Mesa Drive Palm Springs, CA 92264 $1,195,000 2,671 sq. ft. 9,583 sq. ft. $447
2018-10-30 Single Family Mid Century 15891 La Vida Drive Palm Springs, CA 92262 $299,000 1,540 sq. ft. 7,405 sq. ft. $194
2018-10-30 Single Family Southwestern 3504 Cliffrose Trails Palm Springs, CA 92262 $339,900 1,900 sq. ft. 6,098 sq. ft. $179
2018-10-30 Single Family Hacienda 493 Dominguez Road Palm Springs, CA 92262 $699,000 2,098 sq. ft. 9,148 sq. ft. $333
2018-10-30 Single Family Ranch 1910 Los Alamos Road Palm Springs, CA 92262 $459,000 1,356 sq. ft. 9,583 sq. ft. $338
2018-10-30 Single Family Contemporary 664 Lily Street Palm Springs, CA 92262 $450,000 1,588 sq. ft. 7,841 sq. ft. $283
2018-10-30 Single Family 1047 Tamarisk Road Palm Springs, CA 92262 $1,749,000 3,419 sq. ft. 17,860 sq. ft. $512
2018-10-29 Single Family Modern 1009 Iris Lane Palm Springs, CA 92264 $799,000 1,530 sq. ft. 4,792 sq. ft. $522
2018-10-29 Single Family Mediterranean 38220 Via Roberta Palm Springs, CA 92264 $1,695,000 4,805 sq. ft. 27,443 sq. ft. $353
2018-10-29 Single Family Other 3121 Ventura Road Palm Springs, CA 92262 $514,900 1,260 sq. ft. 10,019 sq. ft. $409
2018-10-28 Single Family Mid Century 685 Farrell Drive Palm Springs, CA 92262 $649,000 1,360 sq. ft. 10,454 sq. ft. $477
2018-10-27 Single Family Ranch 1752 Desert Park Avenue Palm Springs, CA 92262 $499,000 2,420 sq. ft. 11,761 sq. ft. $206
2018-10-26 Single Family Contemporary 472 Orchid Tree Lane Palm Springs, CA 92262 $779,000 2,248 sq. ft. 10,019 sq. ft. $347
2018-10-26 Single Family Modern 235 Sandy Point Trails Palm Springs, CA 92262 $349,000 1,306 sq. ft. 1,307 sq. ft. $267
2018-10-26 Single Family Mid Century 707 Regal Drive Palm Springs, CA 92262 $1,895,000 2,250 sq. ft. 10,019 sq. ft. $842
2018-10-26 Single Family Spanish 367 Cahuilla Road Palm Springs, CA 92262 $1,437,000 1,697 sq. ft. 8,712 sq. ft. $847
2018-10-26 Single Family Adobe 1117 El Alameda Palm Springs, CA 92262 $725,000 1,483 sq. ft. 7,841 sq. ft. $489
2018-10-26 Single Family Other 302 Vereda Norte Palm Springs, CA 92262 $1,499,000 4,350 sq. ft. 14,810 sq. ft. $345
2018-10-26 Single Family Mid Century 677 Regal Drive Palm Springs, CA 92262 $1,295,000 2,401 sq. ft. 10,019 sq. ft. $539
2018-10-26 Single Family Mid Century 2453 Brentwood Drive Palm Springs, CA 92264 $569,500 1,669 sq. ft. 10,454 sq. ft. $341
2018-10-25 Single Family Contemporary 332 Goleta Way Palm Springs, CA 92264 $719,000 1,773 sq. ft. 3,049 sq. ft. $406
2018-10-23 Single Family Mediterranean 1071 Oro Ridge Palm Springs, CA 92262 $525,000 2,698 sq. ft. 10,019 sq. ft. $195
2018-10-23 Single Family Mid Century 286 Sunset Way Palm Springs, CA 92262 $659,000 1,924 sq. ft. 10,890 sq. ft. $343
2018-10-22 Single Family Other 971 Avenida Olivos Palm Springs, CA 92262 $999,000 2,053 sq. ft. 15,682 sq. ft. $487
2018-10-22 Single Family Contemporary 340 Pablo Drive Palm Springs, CA 92262 $1,775,000 2,333 sq. ft. 10,019 sq. ft. $761
2018-10-22 Single Family Contemporary 2982 Searchlight Lane Palm Springs, CA 92264 $899,900 3,186 sq. ft. 6,098 sq. ft. $282
2018-10-22 Single Family Contemporary 353 Cheryl Drive Palm Springs, CA 92262 $559,900 1,516 sq. ft. 4,356 sq. ft. $369
2018-10-22 Single Family Mid Century 2125 Wayne Road Palm Springs, CA 92262 $439,900 1,610 sq. ft. 10,019 sq. ft. $273
2018-10-19 Single Family Mid Century 2425 Tuscan Road Palm Springs, CA 92262 $1,179,000 2,472 sq. ft. 17,424 sq. ft. $477
2018-10-19 Single Family Ranch 2307 Powell Road Palm Springs, CA 92262 $585,000 1,474 sq. ft. 10,019 sq. ft. $397
2018-10-19 Single Family Mediterranean 38682 Maracaibo Circle Palm Springs, CA 92264 $889,000 3,489 sq. ft. 19,602 sq. ft. $255
2018-10-19 Single Family Mid Century 2205 Hudson Road Palm Springs, CA 92262 $650,000 1,418 sq. ft. 9,148 sq. ft. $458
2018-10-19 Single Family Mid Century 1042 Apache Road Palm Springs, CA 92264 $1,295,000 2,055 sq. ft. 10,454 sq. ft. $630
2018-10-19 Single Family Contemporary 737 Twin Palms Drive Palm Springs, CA 92264 $739,000 1,793 sq. ft. 5,227 sq. ft. $412
2018-10-19 Single Family Mid Century 192 Ocotillo Avenue Palm Springs, CA 92264 $650,000 1,887 sq. ft. 10,019 sq. ft. $344
2018-10-19 Single Family Modern 1220 San Mateo Drive Palm Springs, CA 92264 $850,000 1,975 sq. ft. 13,068 sq. ft. $430
2018-10-18 Single Family Other 988 Paseo El Mirador Palm Springs, CA 92262 $798,000 2,340 sq. ft. 13,068 sq. ft. $341
2018-10-18 Single Family Ranch 620 Desert View Drive Palm Springs, CA 92264 $399,000 1,974 sq. ft. 10,019 sq. ft. $202
2018-10-17 Single Family Ranch 1850 Desert Palms Drive Palm Springs, CA 92262 $739,000 1,509 sq. ft. 11,761 sq. ft. $490
2018-10-17 Single Family Mid Century 1375 Passage Street Palm Springs, CA 92262 $765,000 1,972 sq. ft. 6,534 sq. ft. $388
2018-10-16 Single Family Mid Century 1577 Calle Marcus Palm Springs, CA 92264 $1,199,000 2,093 sq. ft. 10,454 sq. ft. $573
2018-10-16 Single Family Mid Century 1354 San Lucas Road Palm Springs, CA 92264 $679,000 1,266 sq. ft. 10,454 sq. ft. $536
2018-10-16 Single Family Mid Century 1179 May Drive Palm Springs, CA 92262 $1,075,000 1,983 sq. ft. 13,068 sq. ft. $542
2018-10-15 Single Family Modern 1529 Ava Court Palm Springs, CA 92262 $1,075,000 2,548 sq. ft. 11,326 sq. ft. $422
2018-10-15 Single Family Contemporary 1247 Oro Ridge Palm Springs, CA 92262 $585,000 2,422 sq. ft. 8,276 sq. ft. $242
2018-10-15 Single Family Mid Century 1011 Cielo Drive Palm Springs, CA 92262 $2,695,000 3,217 sq. ft. 14,810 sq. ft. $838
2018-10-15 Single Family Spanish 3534 Date Palm Trails Palm Springs, CA 92262 $365,000 2,102 sq. ft. 5,663 sq. ft. $174
2018-10-15 Single Family Mediterranean 546 Indian Canyon Drive Palm Springs, CA 92262 $759,000 1,964 sq. ft. 3,049 sq. ft. $386
2018-10-15 Single Family Modern 1045 Bella Vista Palm Springs, CA 92264 $1,583,000 4,247 sq. ft. 14,375 sq. ft. $373
2018-10-15 Single Family Adobe 3105 Cambridge Court Palm Springs, CA 92264 $625,000 2,620 sq. ft. 11,761 sq. ft. $239
2018-10-13 Single Family Mid Century 2717 Alexander Club Drive Palm Springs, CA 92262 $635,000 1,818 sq. ft. 6,098 sq. ft. $349
2018-10-13 Single Family Architectural 884 La Mirada Circle Palm Springs, CA 92264 $2,887,000 3,850 sq. ft. 45,302 sq. ft. $750
2018-10-12 Single Family Traditional 1669 Racquet Club Road Palm Springs, CA 92262 $474,000 1,492 sq. ft. 8,276 sq. ft. $318
2018-10-12 Single Family Spanish 354 Stevens Road Palm Springs, CA 92262 $2,179,000 3,844 sq. ft. 13,504 sq. ft. $567
2018-10-12 Single Family Contemporary 122 San Carlos Road Palm Springs, CA 92262 $649,000 1,693 sq. ft. 6,098 sq. ft. $383
2018-10-12 Single Family Modern 2015 Belding Drive Palm Springs, CA 92262 $669,000 1,375 sq. ft. 10,019 sq. ft. $487
2018-10-12 Single Family 1041 Christina Way Palm Springs, CA 92262 $950,000 1,718 sq. ft. 10,890 sq. ft. $553
2018-10-12 Single Family Mid Century 1150 Adobe Way Palm Springs, CA 92262 $649,000 1,225 sq. ft. 10,019 sq. ft. $530
2018-10-11 Single Family Mid Century 632 Camino Real Palm Springs, CA 92264 $1,195,000 3,176 sq. ft. 10,019 sq. ft. $376
2018-10-11 Single Family Contemporary 4426 Vantage Lane Palm Springs, CA 92262 $1,075,000 2,803 sq. ft. 12,632 sq. ft. $384
2018-10-11 Single Family Mid Century 201 Vereda Norte Palm Springs, CA 92262 $1,995,000 3,544 sq. ft. 20,038 sq. ft. $563
2018-10-10 Single Family Other 1855 Los Alamos Road Palm Springs, CA 92262 $329,000 1,336 sq. ft. 10,890 sq. ft. $246
2018-10-10 Single Family Mediterranean 965 Via Olivera Palm Springs, CA 92262 $778,000 2,429 sq. ft. 10,454 sq. ft. $320
2018-10-10 Single Family Mid Century 2702 Plaimor Avenue Palm Springs, CA 92262 $900,000 2,114 sq. ft. 14,810 sq. ft. $426
2018-10-09 Single Family Mid Century 1541 Madrona Drive Palm Springs, CA 92264 $926,000 2,011 sq. ft. 10,019 sq. ft. $460
2018-10-09 Single Family Contemporary 2925 Searchlight Lane Palm Springs, CA 92264 $839,000 2,265 sq. ft. 6,534 sq. ft. $370
2018-10-09 Single Family Mid Century 665 Canon Drive Palm Springs, CA 92264 $650,000 1,435 sq. ft. 10,019 sq. ft. $453
2018-10-09 Single Family Mid Century 2495 Yosemite Drive Palm Springs, CA 92264 $1,599,000 4,775 sq. ft. 19,166 sq. ft. $335
2018-10-09 Single Family Mid Century 2033 San Antonio Road Palm Springs, CA 92262 $669,900 2,257 sq. ft. 10,019 sq. ft. $297
2018-10-09 Single Family Mediterranean 1308 Verdugo Road Palm Springs, CA 92262 $1,275,000 3,173 sq. ft. 15,246 sq. ft. $402
2018-10-08 Single Family Modern 1925 Joshua Tree Place Palm Springs, CA 92264 $1,070,000 3,028 sq. ft. 11,761 sq. ft. $353
2018-10-08 Single Family Contemporary 663 Chia Road Palm Springs, CA 92262 $759,500 1,849 sq. ft. 10,019 sq. ft. $411
2018-10-08 Single Family Spanish 1133 Camino Mirasol Palm Springs, CA 92262 $2,995,000 4,298 sq. ft. 23,522 sq. ft. $697
2018-10-07 Single Family Contemporary 3472 Tranquility Way Palm Springs, CA 92262 $374,999 2,102 sq. ft. 5,663 sq. ft. $178
2018-10-06 Single Family Mediterranean 1092 Vista Sol Palm Springs, CA 92262 $379,000 1,630 sq. ft. 6,098 sq. ft. $233
2018-10-05 Single Family Contemporary 2951 Twilight Lane Palm Springs, CA 92264 $849,000 2,264 sq. ft. 7,841 sq. ft. $375
2018-10-05 Single Family Modern 1110 Celadon Street Palm Springs, CA 92262 $1,399,000 2,705 sq. ft. 10,019 sq. ft. $517
2018-10-05 Single Family 216 Via Lola Palm Springs, CA 92262 $2,395,000 3,260 sq. ft. 16,553 sq. ft. $735
2018-10-05 Single Family Contemporary 3495 Loma Vista Circle Palm Springs, CA 92264 $625,000 2,340 sq. ft. 11,326 sq. ft. $267
2018-10-04 Single Family Modern 1291 Delgado Road Palm Springs, CA 92262 $649,000 1,392 sq. ft. 11,326 sq. ft. $466
2018-10-04 Single Family Rustic 820 Chuckwalla Road Palm Springs, CA 92262 $619,000 1,559 sq. ft. 10,890 sq. ft. $397
2018-10-03 Single Family Spanish 600 Via Escuela Palm Springs, CA 92262 $985,000 3,615 sq. ft. 17,424 sq. ft. $272
2018-10-02 Single Family Mediterranean 920 Nueva Vista Drive Palm Springs, CA 92264 $419,000 1,457 sq. ft. 6,970 sq. ft. $288
2018-10-02 Single Family Architectural 450 Monte Vista Drive Palm Springs, CA 92262 $1,900,000 3,616 sq. ft. 12,197 sq. ft. $525
2018-10-02 Single Family Ranch 2040 Rochelle Road Palm Springs, CA 92262 $518,000 1,732 sq. ft. 10,019 sq. ft. $299
2018-10-02 Single Family Ranch 3784 Calle San Raphael Palm Springs, CA 92264 $425,000 1,362 sq. ft. 6,534 sq. ft. $312
2018-10-01 Single Family Mediterranean 1799 Sand Canyon Way Palm Springs, CA 92262 $549,000 2,288 sq. ft. 12,197 sq. ft. $240
2018-10-01 Single Family Other 1455 Four Seasons Palm Springs, CA 92262 $394,500 2,102 sq. ft. 6,098 sq. ft. $188
2018-10-01 Single Family Contemporary 475 Valmonte Sur Palm Springs, CA 92262 $2,695,000 4,116 sq. ft. 28,314 sq. ft. $655
2018-10-01 Single Family Mediterranean 3118 Vista Chino Palm Springs, CA 92262 $425,000 1,501 sq. ft. 9,148 sq. ft. $283
2018-10-01 Single Family Mid Century 2033 Joshua Tree Place Palm Springs, CA 92264 $895,000 2,222 sq. ft. 9,148 sq. ft. $403
2018-09-28 Single Family Spanish 440 Chino Canyon Road Palm Springs, CA 92262 $1,695,000 3,460 sq. ft. 18,731 sq. ft. $490
2018-09-28 Single Family Mediterranean 1318 Buena Vista Drive Palm Springs, CA 92262 $1,195,000 2,420 sq. ft. 7,841 sq. ft. $494
2018-09-28 Single Family Mid Century 2793 Kitty Hawk Drive Palm Springs, CA 92262 $725,000 1,225 sq. ft. 11,326 sq. ft. $592
2018-09-28 Single Family Contemporary 38127 Maracaibo Circle Palm Springs, CA 92264 $1,450,000 4,000 sq. ft. 15,682 sq. ft. $362
2018-09-28 Single Family Spanish 206 Morongo Road Palm Springs, CA 92264 $749,000 1,879 sq. ft. 9,583 sq. ft. $399
2018-09-27 Single Family Spanish 185 Palo Verde Avenue Palm Springs, CA 92264 $899,000 2,284 sq. ft. 10,019 sq. ft. $394
2018-09-25 Single Family Mid Century 2045 Jacques Drive Palm Springs, CA 92262 $589,000 1,800 sq. ft. 10,890 sq. ft. $327
2018-09-25 Single Family Ranch 2233 Cardillo Avenue Palm Springs, CA 92262 $630,000 1,533 sq. ft. 9,148 sq. ft. $411
2018-09-25 Single Family Other 2420 Wayne Road Palm Springs, CA 92262 $342,500 1,063 sq. ft. 9,583 sq. ft. $322
2018-09-25 Single Family Other 804 Louise Drive Palm Springs, CA 92262 $429,000 1,462 sq. ft. 11,326 sq. ft. $293
2018-09-25 Single Family Mid Century 4151 Sadao Court Palm Springs, CA 92262 $624,990 6,098 sq. ft.
2018-09-21 Single Family Contemporary 2500 Farrell Drive Palm Springs, CA 92262 $529,000 1,657 sq. ft. 13,504 sq. ft. $319
2018-09-21 Single Family Contemporary 1591 Cerritos Drive Palm Springs, CA 92264 $272,500 1,305 sq. ft. 1,742 sq. ft. $209
2018-09-19 Single Family Mid Century 2358 Alhambra Drive Palm Springs, CA 92264 $1,195,000 3,477 sq. ft. 13,939 sq. ft. $344
2018-09-19 Single Family English 635 Grenfall Road Palm Springs, CA 92264 $1,149,500 4,047 sq. ft. 13,504 sq. ft. $284
2018-09-19 Single Family Mid Century 4141 Sadao Court Palm Springs, CA 92262 $649,990 2,060 sq. ft. 6,534 sq. ft. $316
2018-09-18 Single Family Mediterranean 3431 Savanna Way Palm Springs, CA 92262 $452,999 2,288 sq. ft. 6,098 sq. ft. $198
2018-09-14 Single Family Ranch 2060 Jason Court Palm Springs, CA 92262 $329,000 1,248 sq. ft. 7,405 sq. ft. $264
2018-09-14 Single Family Ranch 916 Avenida Evelita Palm Springs, CA 92264 $429,900 1,555 sq. ft. 6,970 sq. ft. $276
2018-09-13 Single Family Contemporary 699 Equinox Way Palm Springs, CA 92262 $869,000 2,523 sq. ft. 7,405 sq. ft. $344
2018-09-13 Single Family Mediterranean 2700 San Angelo Road Palm Springs, CA 92262 $459,000 1,821 sq. ft. 10,019 sq. ft. $252
2018-09-10 Single Family Mid Century 2422 Camino Real Palm Springs, CA 92264 $779,000 2,619 sq. ft. 10,454 sq. ft. $297
2018-09-10 Single Family Modern 1500 Avenida Sevilla Palm Springs, CA 92264 $1,599,000 5,400 sq. ft. 22,216 sq. ft. $296
2018-09-10 Single Family Contemporary 1245 Sunrise Way Palm Springs, CA 92264 $799,000 2,160 sq. ft. 11,326 sq. ft. $370
2018-09-09 Single Family Contemporary 2793 Golondrina Way Palm Springs, CA 92264 $579,000 1,816 sq. ft. 7,841 sq. ft. $319
2018-09-09 Single Family Spanish 437 Via Colusa Palm Springs, CA 92262 $1,280,000 2,493 sq. ft. 14,375 sq. ft. $513
2018-09-07 Single Family Modern 2225 Andreas Road Palm Springs, CA 92262 $939,000 2,937 sq. ft. 10,454 sq. ft. $320
2018-09-06 Single Family Modern 278 Patel Place Palm Springs, CA 92264 $1,750,000 4,826 sq. ft. 14,375 sq. ft. $363
2018-09-02 Single Family Modern 305 Patel Place Palm Springs, CA 92264 $1,420,000 3,323 sq. ft. 14,375 sq. ft. $427
2018-09-01 Single Family Contemporary 855 Panorama Road Palm Springs, CA 92262 $1,395,000 3,348 sq. ft. 15,682 sq. ft. $417
2018-09-01 Single Family Contemporary 503 Lujo Circle Palm Springs, CA 92262 $529,000 2,509 sq. ft. 18,731 sq. ft. $211
2018-08-31 Single Family Mid Century 2291 Terry Lane Palm Springs, CA 92262 $749,000 2,882 sq. ft. 13,068 sq. ft. $260
2018-08-31 Single Family Other 3050 Monte Azul Palm Springs, CA 92264 $1,545,000 3,649 sq. ft. 16,117 sq. ft. $423
2018-08-31 Single Family Mid Century 2481 Yosemite Drive Palm Springs, CA 92264 $1,250,000 2,831 sq. ft. 10,890 sq. ft. $442
2018-08-31 Single Family Mediterranean 957 Alta Ridge Palm Springs, CA 92262 $475,000 2,107 sq. ft. 9,148 sq. ft. $225
2018-08-31 Single Family Mid Century 2626 Mccarn Road Palm Springs, CA 92262 $699,000 1,631 sq. ft. 10,890 sq. ft. $429
2018-08-31 Single Family Modern 4365 Vantage Lane Palm Springs, CA 92262 $719,900 2,288 sq. ft. 6,098 sq. ft. $315
2018-08-30 Single Family Contemporary 2962 Searchlight Lane Palm Springs, CA 92264 $777,500 2,412 sq. ft. 6,098 sq. ft. $322
2018-08-30 Single Family Mid Century 720 Plaza Amigo Palm Springs, CA 92262 $579,000 1,136 sq. ft. 5,663 sq. ft. $510
2018-08-30 Single Family Modern 2796 Junipero Avenue Palm Springs, CA 92262 $574,999 1,700 sq. ft. 6,534 sq. ft. $338
2018-08-24 Single Family Modern 4935 Geary Way Palm Springs, CA 92262 $590,000 2,422 sq. ft. 5,663 sq. ft. $244
2018-08-23 Single Family Ranch 1685 Avenida Olancha Palm Springs, CA 92264 $745,000 2,159 sq. ft. 10,454 sq. ft. $345
2018-08-23 Single Family Spanish 583 Calle Abronia Palm Springs, CA 92264 $567,500 2,700 sq. ft. 6,098 sq. ft. $210
2018-08-22 Single Family Other 2312 Shannon Way Palm Springs, CA 92262 $435,000 1,717 sq. ft. 7,405 sq. ft. $253
2018-08-21 Single Family Contemporary 2505 Toledo Avenue Palm Springs, CA 92264 $939,000 2,583 sq. ft. 13,068 sq. ft. $364
2018-08-21 Single Family Mediterranean 179 Villaggio Palm Springs, CA 92262 $990,000 1,962 sq. ft. 3,485 sq. ft. $505
2018-08-20 Single Family Modern 1176 Cyan Lane Palm Springs, CA 92262 $699,995 1,981 sq. ft. 5,227 sq. ft. $353
2018-08-20 Single Family Contemporary 350 Cheryl Drive Palm Springs, CA 92262 $521,000 1,516 sq. ft. 3,485 sq. ft. $344
2018-08-15 Single Family Spanish 1028 El Alameda Palm Springs, CA 92262 $1,250,000 2,287 sq. ft. 13,939 sq. ft. $547
2018-08-15 Single Family Modern 1190 Azure Court Palm Springs, CA 92262 $808,000 2,312 sq. ft. 13,939 sq. ft. $349
2018-08-12 Single Family Mid Century 1415 Passage Street Palm Springs, CA 92262 $784,990 2,060 sq. ft. 6,970 sq. ft. $381
2018-08-12 Single Family Ranch 2955 Bahada Road Palm Springs, CA 92262 $599,000 1,746 sq. ft. 10,454 sq. ft. $343
2018-08-10 Single Family Ranch 1777 Mesa Drive Palm Springs, CA 92264 $679,900 2,006 sq. ft. 7,405 sq. ft. $339
2018-08-08 Single Family Other 222 Sonora Road Palm Springs, CA 92264 $665,000 1,928 sq. ft. 10,019 sq. ft. $345
2018-08-03 Single Family Mid Century 1127 Mesquite Avenue Palm Springs, CA 92264 $1,149,000 3,427 sq. ft. 12,197 sq. ft. $335
2018-08-01 Single Family Contemporary 4967 Davidson Way Palm Springs, CA 92262 $614,900 2,184 sq. ft. 6,970 sq. ft. $282
2018-07-29 Single Family Mediterranean 1346 Barrymore Place Palm Springs, CA 92262 $1,395,000 3,440 sq. ft. 16,553 sq. ft. $406
2018-07-28 Single Family Mid Century 1350 Ladera Circle Palm Springs, CA 92262 $2,695,000 5,000 sq. ft. 20,909 sq. ft. $539
2018-07-27 Single Family Mid Century 1930 Toledo Avenue Palm Springs, CA 92264 $829,000 2,250 sq. ft. 12,632 sq. ft. $368
2018-07-24 Single Family French 650 Cahuilla Road Palm Springs, CA 92262 $4,300,000 4,335 sq. ft. 25,700 sq. ft. $992
2018-07-20 Single Family Modern 2680 Concho Lane Palm Springs, CA 92264 $1,169,000 2,753 sq. ft. 18,295 sq. ft. $425
2018-07-19 Single Family Spanish 610 Palo Verde Avenue Palm Springs, CA 92264 $649,000 2,214 sq. ft. 7,841 sq. ft. $293
2018-07-17 Single Family Mediterranean 1295 Oro Ridge Palm Springs, CA 92262 $628,000 3,015 sq. ft. 10,454 sq. ft. $208
2018-07-14 Single Family Ranch 2292 Del Lago Road Palm Springs, CA 92262 $545,000 1,594 sq. ft. 10,019 sq. ft. $342
2018-07-10 Single Family Mediterranean 38171 Bogert Trails Palm Springs, CA 92264 $945,000 3,448 sq. ft. 14,375 sq. ft. $274
2018-07-09 Single Family Modern 3000 Candlelight Lane Palm Springs, CA 92264 $849,000 2,952 sq. ft. 6,534 sq. ft. $288
2018-07-05 Single Family Mid Century 505 Tramview Road Palm Springs, CA 92262 $265,000 1,570 sq. ft. 7,405 sq. ft. $169
2018-06-30 Single Family Mediterranean 2090 Nicola Road Palm Springs, CA 92262 $569,000 2,339 sq. ft. 12,197 sq. ft. $243
2018-06-30 Single Family Calif Bungalow 777 Via Escuela Palm Springs, CA 92262 $489,000 1,452 sq. ft. 9,583 sq. ft. $337
2018-06-27 Single Family Tuscan 2237 Tuscany Heights Drive Palm Springs, CA 92262 $1,199,000 3,282 sq. ft. 16,117 sq. ft. $365
2018-06-27 Single Family Mediterranean 1600 Via Norte Palm Springs, CA 92262 $1,500,000 2,980 sq. ft. 13,504 sq. ft. $503
2018-06-13 Single Family Contemporary 1752 Sand Canyon Way Palm Springs, CA 92262 $545,000 2,825 sq. ft. 7,405 sq. ft. $193
2018-06-11 Single Family 5300 Waverly Dr Palm Springs, CA 92264 $148,888 768 sq. ft. 871 sq. ft. $194
2018-06-08 Single Family Mediterranean/Spanish 585 Calle Santa Rosa Palm Springs, CA 92264 $645,000 1,614 sq. ft. 5,663 sq. ft. $400
2018-06-04 Single Family Contemporary 2196 Marguerite Street Palm Springs, CA 92264 $473,000 1,882 sq. ft. 6,970 sq. ft. $251
2018-06-03 Single Family Modern 663 Bliss Way Palm Springs, CA 92262 $899,900 2,549 sq. ft. 7,405 sq. ft. $353
2018-05-30 Single Family Modern 825 Snapdragon Circle Palm Springs, CA 92264 $1,059,000 2,939 sq. ft. 16,117 sq. ft. $360
2018-05-27 Single Family Ranch 1433 Calle De Maria Palm Springs, CA 92264 $1,150,000 3,544 sq. ft. 10,890 sq. ft. $324
2018-05-24 Single Family Modern 2321 Araby Drive Palm Springs, CA 92264 $844,000 1,704 sq. ft. 6,970 sq. ft. $495
2018-05-22 Single Family Spanish 3651 Western Sky Way Palm Springs, CA 92262 $399,500 2,023 sq. ft. 10,454 sq. ft. $197
2018-05-18 Single Family Mid Century 1069 Azure Court Palm Springs, CA 92262 $758,800 2,186 sq. ft. 12,632 sq. ft. $347
2018-05-18 Single Family Spanish Colonial 206 Lugo Road Palm Springs, CA 92262 $799,000 1,913 sq. ft. 2,178 sq. ft. $418
2018-05-18 Single Family Spanish Colonial 210 Lugo Road Palm Springs, CA 92262 $939,000 2,301 sq. ft. 2,178 sq. ft. $408
2018-05-18 Single Family Spanish Colonial 212 Calle Tranquillo Palm Springs, CA 92262 $749,000 1,540 sq. ft. 2,178 sq. ft. $486
2018-05-14 Single Family 1851 Crestview Drive Palm Springs, CA 92264 $1,995,000 2,649 sq. ft. 45,738 sq. ft. $753
2018-05-08 Single Family Mediterranean/Spanish 529 Bon Air Drive Palm Springs, CA 92262 $248,000 1,350 sq. ft. $184
2018-05-08 Single Family Contemporary 1504 Via Miraleste Palm Springs, CA 92262 $299,000 1,448 sq. ft. 871 sq. ft. $206
2018-05-07 Single Family Mediterranean 38058 Maracaibo Circle Palm Springs, CA 92264 $1,249,000 4,399 sq. ft. 20,473 sq. ft. $284
2018-05-07 Single Family Modern 3091 Linea Terrace Palm Springs, CA 92264 $2,790,000 4,869 sq. ft. 17,860 sq. ft. $573
2018-05-07 Single Family Modern 3096 Arroyo Seco Palm Springs, CA 92264 $1,795,000 4,392 sq. ft. 16,553 sq. ft. $409
2018-05-07 Single Family Contemporary 915 Oceo Circle Palm Springs, CA 92264 $999,999 2,608 sq. ft. 6,098 sq. ft. $383
2018-05-07 Single Family Mediterranean 2389 Francis Drive Palm Springs, CA 92262 $595,000 2,178 sq. ft. 11,326 sq. ft. $273
2018-03-22 Single Family Mid Century 1254 Vista Vespero Palm Springs, CA 92262 $1,750,000 3,021 sq. ft. 12,197 sq. ft. $579
2018-03-21 Single Family Ranch 1000 Bogert Trails Palm Springs, CA 92264 $2,799,000 8,389 sq. ft. 99,752 sq. ft. $334
2018-02-24 Single Family Spanish Colonial 400 Ridge Road Palm Springs, CA 92264 $1,575,000 3,725 sq. ft. 21,344 sq. ft. $423
2018-02-01 Single Family Modern 2805 Palm Canyon Drive Palm Springs, CA 92264 $1,350,000 3,339 sq. ft. 3,920 sq. ft. $404
2018-01-26 Single Family Contemporary 4250 Amber Lane Palm Springs, CA 92262 $746,995 1,984 sq. ft. 5,227 sq. ft. $377
2017-12-31 Single Family Mid Century 2364 Yosemite Drive Palm Springs, CA 92264 $1,249,900 2,774 sq. ft. 12,197 sq. ft. $451
2017-12-13 Single Family Mediterranean 38215 Via Fortuna Palm Springs, CA 92264 $1,290,000 6,274 sq. ft. 25,265 sq. ft. $206
2017-11-07 Single Family Mediterranean 2846 Amatista Court Palm Springs, CA 92264 $599,000 2,108 sq. ft. 5,663 sq. ft. $284
2017-11-06 Single Family Mediterranean 38420 Maracaibo Circle Palm Springs, CA 92264 $975,000 3,837 sq. ft. 16,117 sq. ft. $254
2017-10-04 Single Family 485 Santa Elena Road Palm Springs, CA 92262 $1,498,000 3,528 sq. ft. 18,731 sq. ft. $425
2017-08-12 Single Family Contemporary 1007 Ziel Drive Palm Springs, CA 92262 $884,000 2,576 sq. ft. 4,356 sq. ft. $343
2017-07-07 Single Family Ranch 1211 Pasatiempo Road Palm Springs, CA 92262 $540,000 1,670 sq. ft. 10,019 sq. ft. $323
2017-07-03 Single Family Traditional 2520 La Condesa Drive Palm Springs, CA 92264 $539,900 2,434 sq. ft. 3,920 sq. ft. $222
2016-12-14 Single Family Contemporary 488 Via Altamira Palm Springs, CA 92262 $1,599,000 3,879 sq. ft. 14,375 sq. ft. $412